sensor_id;sensor_type;location;lat;lon;timestamp;pressure;altitude;pressure_sealevel;temperature;humidity
41515;BME280;27247;48.020;16.720;2023-02-28T00:02:16;100917.50;;;0.39;78.85
41515;BME280;27247;48.020;16.720;2023-02-28T00:06:28;100919.53;;;0.50;79.02
41515;BME280;27247;48.020;16.720;2023-02-28T00:10:38;100920.63;;;0.46;79.18
41515;BME280;27247;48.020;16.720;2023-02-28T00:14:49;100932.50;;;0.37;79.67
41515;BME280;27247;48.020;16.720;2023-02-28T00:18:59;100927.66;;;0.45;79.18
41515;BME280;27247;48.020;16.720;2023-02-28T00:23:09;100927.41;;;0.18;79.97
41515;BME280;27247;48.020;16.720;2023-02-28T00:27:20;100939.78;;;0.32;79.72
41515;BME280;27247;48.020;16.720;2023-02-28T00:31:30;100942.75;;;0.26;79.10
41515;BME280;27247;48.020;16.720;2023-02-28T00:35:40;100945.28;;;0.27;79.35
41515;BME280;27247;48.020;16.720;2023-02-28T00:39:51;100949.94;;;0.22;79.79
41515;BME280;27247;48.020;16.720;2023-02-28T00:44:01;100954.34;;;0.22;80.36
41515;BME280;27247;48.020;16.720;2023-02-28T00:48:11;100958.97;;;0.34;80.22
41515;BME280;27247;48.020;16.720;2023-02-28T00:52:22;100971.31;;;0.16;80.37
41515;BME280;27247;48.020;16.720;2023-02-28T00:56:32;100963.88;;;-0.26;82.93
41515;BME280;27247;48.020;16.720;2023-02-28T01:00:43;100969.72;;;-0.21;83.21
41515;BME280;27247;48.020;16.720;2023-02-28T01:04:53;100953.94;;;-0.04;82.29
41515;BME280;27247;48.020;16.720;2023-02-28T01:09:05;100956.47;;;0.15;81.70
41515;BME280;27247;48.020;16.720;2023-02-28T01:13:15;100959.19;;;0.29;81.60
41515;BME280;27247;48.020;16.720;2023-02-28T01:17:26;100955.41;;;0.35;80.56
41515;BME280;27247;48.020;16.720;2023-02-28T01:21:36;100952.94;;;0.48;80.05
41515;BME280;27247;48.020;16.720;2023-02-28T01:25:47;100967.28;;;0.42;80.23
41515;BME280;27247;48.020;16.720;2023-02-28T01:29:57;100976.44;;;0.35;80.58
41515;BME280;27247;48.020;16.720;2023-02-28T01:34:07;100977.69;;;0.28;80.10
41515;BME280;27247;48.020;16.720;2023-02-28T01:38:17;100985.00;;;0.39;80.72
41515;BME280;27247;48.020;16.720;2023-02-28T01:42:28;100981.00;;;0.31;81.54
41515;BME280;27247;48.020;16.720;2023-02-28T01:46:38;100975.47;;;0.20;82.66
41515;BME280;27247;48.020;16.720;2023-02-28T01:50:49;100976.59;;;0.32;82.63
41515;BME280;27247;48.020;16.720;2023-02-28T01:55:02;100966.25;;;0.45;83.26
41515;BME280;27247;48.020;16.720;2023-02-28T01:59:20;100964.22;;;0.50;83.15
41515;BME280;27247;48.020;16.720;2023-02-28T02:03:32;100965.06;;;0.50;83.49
41515;BME280;27247;48.020;16.720;2023-02-28T02:07:44;100954.31;;;0.55;82.24
41515;BME280;27247;48.020;16.720;2023-02-28T02:11:55;100954.72;;;0.47;81.73
41515;BME280;27247;48.020;16.720;2023-02-28T02:34:50;100958.91;;;0.03;82.45
41515;BME280;27247;48.020;16.720;2023-02-28T02:43:33;100955.81;;;-0.23;83.74
41515;BME280;27247;48.020;16.720;2023-02-28T02:47:46;100954.28;;;-0.27;83.81
41515;BME280;27247;48.020;16.720;2023-02-28T02:52:00;100960.78;;;-0.51;84.35
41515;BME280;27247;48.020;16.720;2023-02-28T02:56:12;100962.72;;;-0.55;85.12
41515;BME280;27247;48.020;16.720;2023-02-28T03:00:27;100963.66;;;-0.56;85.43
41515;BME280;27247;48.020;16.720;2023-02-28T03:04:43;100954.94;;;-0.56;85.23
41515;BME280;27247;48.020;16.720;2023-02-28T03:08:56;100961.78;;;-0.54;85.03
41515;BME280;27247;48.020;16.720;2023-02-28T03:13:23;100964.56;;;-0.57;84.87
41515;BME280;27247;48.020;16.720;2023-02-28T03:17:56;100964.34;;;-0.70;84.77
41515;BME280;27247;48.020;16.720;2023-02-28T03:22:45;100965.03;;;-0.66;84.85
41515;BME280;27247;48.020;16.720;2023-02-28T03:27:10;100966.72;;;-0.65;84.69
41515;BME280;27247;48.020;16.720;2023-02-28T03:31:28;100964.19;;;-0.67;84.08
41515;BME280;27247;48.020;16.720;2023-02-28T03:35:45;100965.88;;;-0.83;84.04
41515;BME280;27247;48.020;16.720;2023-02-28T03:40:01;100969.78;;;-0.91;84.30
41515;BME280;27247;48.020;16.720;2023-02-28T03:44:22;100968.88;;;-0.90;84.36
41515;BME280;27247;48.020;16.720;2023-02-28T03:48:40;100973.91;;;-1.05;84.41
41515;BME280;27247;48.020;16.720;2023-02-28T04:01:53;100970.38;;;-1.04;85.07
41515;BME280;27247;48.020;16.720;2023-02-28T04:06:07;100970.09;;;-1.16;84.65
41515;BME280;27247;48.020;16.720;2023-02-28T04:10:18;100979.47;;;-1.30;84.18
41515;BME280;27247;48.020;16.720;2023-02-28T04:14:29;100966.31;;;-1.47;83.50
41515;BME280;27247;48.020;16.720;2023-02-28T04:18:39;100980.25;;;-1.46;84.04
41515;BME280;27247;48.020;16.720;2023-02-28T04:22:50;100973.38;;;-1.49;84.29
41515;BME280;27247;48.020;16.720;2023-02-28T04:27:00;100978.78;;;-1.52;84.99
41515;BME280;27247;48.020;16.720;2023-02-28T04:31:10;100989.25;;;-1.52;84.90
41515;BME280;27247;48.020;16.720;2023-02-28T04:35:21;100987.84;;;-1.59;84.69
41515;BME280;27247;48.020;16.720;2023-02-28T04:39:35;100984.44;;;-1.61;84.29
41515;BME280;27247;48.020;16.720;2023-02-28T04:43:46;100987.63;;;-1.73;82.64
41515;BME280;27247;48.020;16.720;2023-02-28T04:47:56;100987.53;;;-1.90;82.72
41515;BME280;27247;48.020;16.720;2023-02-28T04:52:06;100994.66;;;-1.94;83.44
41515;BME280;27247;48.020;16.720;2023-02-28T04:56:18;100995.50;;;-2.14;84.43
41515;BME280;27247;48.020;16.720;2023-02-28T05:00:28;100993.28;;;-2.23;85.83
41515;BME280;27247;48.020;16.720;2023-02-28T05:04:39;100999.56;;;-2.27;85.85
41515;BME280;27247;48.020;16.720;2023-02-28T05:08:50;100991.25;;;-2.37;86.75
41515;BME280;27247;48.020;16.720;2023-02-28T05:13:00;100995.44;;;-2.53;87.05
41515;BME280;27247;48.020;16.720;2023-02-28T05:17:11;100994.19;;;-2.65;87.33
41515;BME280;27247;48.020;16.720;2023-02-28T05:21:29;100986.47;;;-2.47;86.49
41515;BME280;27247;48.020;16.720;2023-02-28T05:25:40;100989.81;;;-2.64;86.77
41515;BME280;27247;48.020;16.720;2023-02-28T05:29:51;100991.81;;;-2.71;86.68
41515;BME280;27247;48.020;16.720;2023-02-28T05:34:02;100991.44;;;-2.62;87.74
41515;BME280;27247;48.020;16.720;2023-02-28T05:38:14;101007.88;;;-2.58;87.53
41515;BME280;27247;48.020;16.720;2023-02-28T05:42:24;101009.25;;;-2.49;88.18
41515;BME280;27247;48.020;16.720;2023-02-28T05:46:35;101008.34;;;-2.48;88.28
41515;BME280;27247;48.020;16.720;2023-02-28T05:50:45;101022.06;;;-2.43;88.24
41515;BME280;27247;48.020;16.720;2023-02-28T05:54:56;101024.31;;;-2.34;88.25
41515;BME280;27247;48.020;16.720;2023-02-28T05:59:06;101022.59;;;-2.35;87.70
41515;BME280;27247;48.020;16.720;2023-02-28T06:03:17;101028.22;;;-2.44;87.50
41515;BME280;27247;48.020;16.720;2023-02-28T06:07:27;101033.25;;;-2.40;88.17
41515;BME280;27247;48.020;16.720;2023-02-28T06:11:37;101032.94;;;-2.32;87.42
41515;BME280;27247;48.020;16.720;2023-02-28T06:15:48;101032.03;;;-2.31;87.49
41515;BME280;27247;48.020;16.720;2023-02-28T06:19:58;101034.50;;;-2.28;87.75
41515;BME280;27247;48.020;16.720;2023-02-28T06:24:09;101034.47;;;-2.06;87.09
41515;BME280;27247;48.020;16.720;2023-02-28T06:28:19;101042.28;;;-2.05;86.72
41515;BME280;27247;48.020;16.720;2023-02-28T06:32:30;101052.75;;;-2.05;87.41
41515;BME280;27247;48.020;16.720;2023-02-28T06:36:41;101048.03;;;-1.97;87.76
41515;BME280;27247;48.020;16.720;2023-02-28T06:40:56;101045.53;;;-1.79;89.22
41515;BME280;27247;48.020;16.720;2023-02-28T06:45:07;101042.59;;;-1.53;89.11
41515;BME280;27247;48.020;16.720;2023-02-28T06:49:19;101044.09;;;-1.29;89.46
41515;BME280;27247;48.020;16.720;2023-02-28T06:53:29;101045.56;;;-1.04;87.64
41515;BME280;27247;48.020;16.720;2023-02-28T06:57:40;101053.31;;;-0.82;86.15
41515;BME280;27247;48.020;16.720;2023-02-28T07:01:50;101048.75;;;-0.79;84.68
41515;BME280;27247;48.020;16.720;2023-02-28T07:06:01;101057.00;;;-0.86;84.91
41515;BME280;27247;48.020;16.720;2023-02-28T07:10:13;101066.44;;;-0.82;85.20
41515;BME280;27247;48.020;16.720;2023-02-28T07:14:25;101064.00;;;-0.68;85.12
41515;BME280;27247;48.020;16.720;2023-02-28T07:18:37;101062.06;;;-0.65;84.97
41515;BME280;27247;48.020;16.720;2023-02-28T07:22:47;101066.50;;;-0.48;84.18
41515;BME280;27247;48.020;16.720;2023-02-28T07:27:05;101057.72;;;-0.29;82.30
41515;BME280;27247;48.020;16.720;2023-02-28T07:31:16;101064.19;;;-0.19;81.71
41515;BME280;27247;48.020;16.720;2023-02-28T07:35:27;101061.88;;;-0.08;81.29
41515;BME280;27247;48.020;16.720;2023-02-28T07:39:37;101061.56;;;-0.02;80.71
41515;BME280;27247;48.020;16.720;2023-02-28T07:43:47;101075.34;;;0.03;81.78
41515;BME280;27247;48.020;16.720;2023-02-28T07:47:58;101075.41;;;0.19;80.79
41515;BME280;27247;48.020;16.720;2023-02-28T07:52:08;101078.19;;;0.33;79.80
41515;BME280;27247;48.020;16.720;2023-02-28T07:56:18;101083.66;;;0.46;78.81
41515;BME280;27247;48.020;16.720;2023-02-28T08:00:29;101077.13;;;0.53;78.04
41515;BME280;27247;48.020;16.720;2023-02-28T08:04:41;101082.94;;;0.75;77.67
41515;BME280;27247;48.020;16.720;2023-02-28T08:08:52;101087.78;;;0.83;76.90
41515;BME280;27247;48.020;16.720;2023-02-28T08:13:03;101096.44;;;0.69;77.34
41515;BME280;27247;48.020;16.720;2023-02-28T08:17:13;101091.72;;;0.91;76.56
41515;BME280;27247;48.020;16.720;2023-02-28T08:21:23;101090.53;;;0.97;75.30
41515;BME280;27247;48.020;16.720;2023-02-28T08:25:34;101083.91;;;0.90;75.47
41515;BME280;27247;48.020;16.720;2023-02-28T08:29:44;101095.09;;;0.78;75.97
41515;BME280;27247;48.020;16.720;2023-02-28T08:33:54;101107.84;;;1.01;75.44
41515;BME280;27247;48.020;16.720;2023-02-28T08:38:08;101105.00;;;1.21;75.46
41515;BME280;27247;48.020;16.720;2023-02-28T08:42:19;101106.03;;;1.35;74.58
41515;BME280;27247;48.020;16.720;2023-02-28T08:46:29;101100.25;;;1.44;74.81
41515;BME280;27247;48.020;16.720;2023-02-28T08:50:39;101098.59;;;1.57;75.10
41515;BME280;27247;48.020;16.720;2023-02-28T08:54:50;101101.34;;;1.55;73.68
41515;BME280;27247;48.020;16.720;2023-02-28T08:59:00;101105.47;;;1.75;73.31
41515;BME280;27247;48.020;16.720;2023-02-28T09:03:10;101103.13;;;1.85;73.37
41515;BME280;27247;48.020;16.720;2023-02-28T09:07:21;101101.13;;;2.04;72.76
41515;BME280;27247;48.020;16.720;2023-02-28T09:11:31;101098.56;;;2.18;72.27
41515;BME280;27247;48.020;16.720;2023-02-28T09:15:42;101108.06;;;2.21;72.27
41515;BME280;27247;48.020;16.720;2023-02-28T09:19:52;101105.75;;;2.31;71.59
41515;BME280;27247;48.020;16.720;2023-02-28T09:24:03;101102.09;;;2.47;71.75
41515;BME280;27247;48.020;16.720;2023-02-28T09:28:13;101108.69;;;2.54;71.38
41515;BME280;27247;48.020;16.720;2023-02-28T09:32:27;101102.84;;;2.78;71.32
41515;BME280;27247;48.020;16.720;2023-02-28T09:36:37;101103.97;;;3.16;70.02
41515;BME280;27247;48.020;16.720;2023-02-28T09:40:53;101103.38;;;3.26;69.51
41515;BME280;27247;48.020;16.720;2023-02-28T09:45:24;101100.31;;;3.46;68.62
41515;BME280;27247;48.020;16.720;2023-02-28T09:49:41;101104.50;;;3.36;68.97
41515;BME280;27247;48.020;16.720;2023-02-28T09:53:53;101102.97;;;3.73;68.24
41515;BME280;27247;48.020;16.720;2023-02-28T09:58:03;101101.94;;;3.88;66.69
41515;BME280;27247;48.020;16.720;2023-02-28T10:02:17;101108.44;;;4.09;66.71
41515;BME280;27247;48.020;16.720;2023-02-28T10:06:41;101112.66;;;4.39;64.95
41515;BME280;27247;48.020;16.720;2023-02-28T10:10:57;101109.91;;;4.40;65.11
41515;BME280;27247;48.020;16.720;2023-02-28T10:15:14;101106.50;;;4.51;65.13
41515;BME280;27247;48.020;16.720;2023-02-28T10:19:30;101106.72;;;4.73;63.84
41515;BME280;27247;48.020;16.720;2023-02-28T10:23:43;101094.69;;;5.06;62.92
41515;BME280;27247;48.020;16.720;2023-02-28T10:28:05;101096.81;;;5.26;62.34
41515;BME280;27247;48.020;16.720;2023-02-28T10:32:22;101086.38;;;5.60;62.19
41515;BME280;27247;48.020;16.720;2023-02-28T10:36:34;101082.19;;;5.21;61.23
41515;BME280;27247;48.020;16.720;2023-02-28T10:40:44;101089.13;;;5.34;61.95
41515;BME280;27247;48.020;16.720;2023-02-28T10:45:14;101091.97;;;5.44;61.77
41515;BME280;27247;48.020;16.720;2023-02-28T10:49:28;101075.78;;;5.36;61.44
41515;BME280;27247;48.020;16.720;2023-02-28T10:57:52;101065.97;;;5.97;60.45
41515;BME280;27247;48.020;16.720;2023-02-28T11:02:36;101053.22;;;6.13;59.20
41515;BME280;27247;48.020;16.720;2023-02-28T11:07:16;101057.25;;;5.95;58.99
41515;BME280;27247;48.020;16.720;2023-02-28T11:11:29;101051.13;;;6.40;59.33
41515;BME280;27247;48.020;16.720;2023-02-28T11:15:41;101040.50;;;6.40;57.21
41515;BME280;27247;48.020;16.720;2023-02-28T11:19:54;101043.41;;;6.37;57.84
41515;BME280;27247;48.020;16.720;2023-02-28T11:32:48;101033.31;;;7.19;55.29
41515;BME280;27247;48.020;16.720;2023-02-28T11:36:59;101030.81;;;7.07;55.08
41515;BME280;27247;48.020;16.720;2023-02-28T11:59:42;101007.06;;;7.69;53.15
41515;BME280;27247;48.020;16.720;2023-02-28T12:13:24;101002.34;;;6.86;55.50
41515;BME280;27247;48.020;16.720;2023-02-28T12:26:38;100984.09;;;7.68;54.56
41515;BME280;27247;48.020;16.720;2023-02-28T12:31:04;100970.34;;;7.31;55.66
41515;BME280;27247;48.020;16.720;2023-02-28T12:35:23;100971.38;;;7.51;54.36
41515;BME280;27247;48.020;16.720;2023-02-28T12:39:44;100963.50;;;8.12;54.53
41515;BME280;27247;48.020;16.720;2023-02-28T12:44:02;100959.28;;;8.60;52.41
41515;BME280;27247;48.020;16.720;2023-02-28T12:52:56;100949.69;;;7.34;54.66
41515;BME280;27247;48.020;16.720;2023-02-28T12:57:40;100945.75;;;7.07;56.26
41515;BME280;27247;48.020;16.720;2023-02-28T13:11:02;100937.69;;;6.54;57.49
41515;BME280;27247;48.020;16.720;2023-02-28T13:19:30;100928.91;;;7.28;56.03
41515;BME280;27247;48.020;16.720;2023-02-28T13:27:56;100915.34;;;6.99;55.94
41515;BME280;27247;48.020;16.720;2023-02-28T13:40:31;100913.69;;;5.53;58.23
41515;BME280;27247;48.020;16.720;2023-02-28T13:45:20;100907.47;;;5.30;58.29
41515;BME280;27247;48.020;16.720;2023-02-28T13:49:25;100923.72;;;5.26;59.18
41515;BME280;27247;48.020;16.720;2023-02-28T13:53:40;100916.19;;;5.43;58.03
41515;BME280;27247;48.020;16.720;2023-02-28T14:06:54;100923.00;;;5.11;58.69
41515;BME280;27247;48.020;16.720;2023-02-28T14:11:15;100923.75;;;5.37;59.91
41515;BME280;27247;48.020;16.720;2023-02-28T14:15:40;100923.84;;;5.70;59.36
41515;BME280;27247;48.020;16.720;2023-02-28T14:19:51;100918.41;;;5.72;58.90
41515;BME280;27247;48.020;16.720;2023-02-28T14:37:41;100907.88;;;6.17;57.75
41515;BME280;27247;48.020;16.720;2023-02-28T14:41:52;100905.81;;;6.43;56.78
41515;BME280;27247;48.020;16.720;2023-02-28T14:46:05;100894.41;;;6.74;56.23
41515;BME280;27247;48.020;16.720;2023-02-28T14:50:27;100891.53;;;6.66;54.68
41515;BME280;27247;48.020;16.720;2023-02-28T14:54:40;100885.28;;;6.99;55.60
41515;BME280;27247;48.020;16.720;2023-02-28T14:58:55;100900.59;;;7.07;55.14
41515;BME280;27247;48.020;16.720;2023-02-28T15:03:36;100893.63;;;6.51;55.99
41515;BME280;27247;48.020;16.720;2023-02-28T15:07:48;100899.91;;;5.94;55.21
41515;BME280;27247;48.020;16.720;2023-02-28T15:11:58;100907.91;;;5.70;56.62
41515;BME280;27247;48.020;16.720;2023-02-28T15:16:17;100908.25;;;5.55;56.37
41515;BME280;27247;48.020;16.720;2023-02-28T15:20:29;100899.66;;;5.40;58.63
41515;BME280;27247;48.020;16.720;2023-02-28T15:24:44;100909.72;;;5.24;57.85
41515;BME280;27247;48.020;16.720;2023-02-28T15:29:05;100907.47;;;5.30;57.37
41515;BME280;27247;48.020;16.720;2023-02-28T15:41:37;100909.66;;;5.12;58.59
41515;BME280;27247;48.020;16.720;2023-02-28T15:46:00;100904.81;;;5.06;58.52
41515;BME280;27247;48.020;16.720;2023-02-28T15:50:13;100906.44;;;4.96;58.69
41515;BME280;27247;48.020;16.720;2023-02-28T15:54:32;100908.81;;;4.88;59.14
41515;BME280;27247;48.020;16.720;2023-02-28T15:58:43;100903.47;;;4.77;59.17
41515;BME280;27247;48.020;16.720;2023-02-28T16:02:54;100915.53;;;4.81;59.29
41515;BME280;27247;48.020;16.720;2023-02-28T16:07:06;100912.81;;;4.70;59.34
41515;BME280;27247;48.020;16.720;2023-02-28T16:11:22;100907.97;;;4.64;60.44
41515;BME280;27247;48.020;16.720;2023-02-28T16:15:38;100910.44;;;4.54;60.26
41515;BME280;27247;48.020;16.720;2023-02-28T16:19:53;100922.31;;;4.48;60.79
41515;BME280;27247;48.020;16.720;2023-02-28T16:24:04;100918.72;;;4.49;60.55
41515;BME280;27247;48.020;16.720;2023-02-28T16:28:21;100927.31;;;4.40;60.98
41515;BME280;27247;48.020;16.720;2023-02-28T16:32:35;100927.00;;;4.32;61.28
41515;BME280;27247;48.020;16.720;2023-02-28T16:36:47;100919.50;;;4.26;61.70
41515;BME280;27247;48.020;16.720;2023-02-28T16:40:59;100920.03;;;4.19;61.76
41515;BME280;27247;48.020;16.720;2023-02-28T16:45:36;100923.72;;;4.16;61.95
41515;BME280;27247;48.020;16.720;2023-02-28T16:49:47;100933.66;;;4.12;62.04
41515;BME280;27247;48.020;16.720;2023-02-28T16:53:58;100943.50;;;4.10;62.37
41515;BME280;27247;48.020;16.720;2023-02-28T16:58:14;100939.19;;;3.97;62.60
41515;BME280;27247;48.020;16.720;2023-02-28T17:02:24;100944.78;;;3.92;63.21
41515;BME280;27247;48.020;16.720;2023-02-28T17:06:35;100944.47;;;3.84;63.62
41515;BME280;27247;48.020;16.720;2023-02-28T17:10:46;100943.09;;;3.91;63.46
41515;BME280;27247;48.020;16.720;2023-02-28T17:14:56;100954.84;;;4.00;63.12
41515;BME280;27247;48.020;16.720;2023-02-28T17:19:11;100965.41;;;4.00;63.17
41515;BME280;27247;48.020;16.720;2023-02-28T17:23:21;100968.25;;;3.84;63.48
41515;BME280;27247;48.020;16.720;2023-02-28T17:27:32;100960.44;;;3.70;63.70
41515;BME280;27247;48.020;16.720;2023-02-28T17:31:43;100963.56;;;3.49;64.26
41515;BME280;27247;48.020;16.720;2023-02-28T17:35:54;100965.78;;;3.43;64.57
41515;BME280;27247;48.020;16.720;2023-02-28T17:40:05;100965.34;;;3.36;64.58
41515;BME280;27247;48.020;16.720;2023-02-28T17:44:17;100967.53;;;3.30;64.81
41515;BME280;27247;48.020;16.720;2023-02-28T17:48:28;100971.13;;;3.29;64.97
41515;BME280;27247;48.020;16.720;2023-02-28T17:52:39;100960.47;;;3.30;64.79
41515;BME280;27247;48.020;16.720;2023-02-28T17:56:49;100960.75;;;3.26;64.43
41515;BME280;27247;48.020;16.720;2023-02-28T18:01:01;100962.44;;;3.27;64.57
41515;BME280;27247;48.020;16.720;2023-02-28T18:05:11;100954.44;;;3.28;64.34
41515;BME280;27247;48.020;16.720;2023-02-28T18:09:22;100972.38;;;3.23;64.45
41515;BME280;27247;48.020;16.720;2023-02-28T18:13:33;100965.06;;;3.14;64.47
41515;BME280;27247;48.020;16.720;2023-02-28T18:17:43;100972.63;;;2.65;65.13
41515;BME280;27247;48.020;16.720;2023-02-28T18:21:54;100971.47;;;2.69;66.19
41515;BME280;27247;48.020;16.720;2023-02-28T18:26:07;100965.28;;;2.41;67.04
41515;BME280;27247;48.020;16.720;2023-02-28T18:30:20;100972.00;;;2.18;67.77
41515;BME280;27247;48.020;16.720;2023-02-28T18:34:31;100966.72;;;2.18;67.88
41515;BME280;27247;48.020;16.720;2023-02-28T18:38:42;100960.41;;;2.21;67.23
41515;BME280;27247;48.020;16.720;2023-02-28T18:42:53;100954.44;;;2.03;66.87
41515;BME280;27247;48.020;16.720;2023-02-28T18:47:04;100956.81;;;1.93;66.98
41515;BME280;27247;48.020;16.720;2023-02-28T18:51:18;100963.84;;;1.79;66.68
41515;BME280;27247;48.020;16.720;2023-02-28T18:55:32;100963.09;;;1.77;67.48
41515;BME280;27247;48.020;16.720;2023-02-28T18:59:43;100970.66;;;1.53;66.90
41515;BME280;27247;48.020;16.720;2023-02-28T19:03:55;100973.06;;;1.42;67.92
41515;BME280;27247;48.020;16.720;2023-02-28T19:08:06;100973.16;;;1.40;68.10
41515;BME280;27247;48.020;16.720;2023-02-28T19:12:16;100976.66;;;1.41;68.56
41515;BME280;27247;48.020;16.720;2023-02-28T19:16:29;100975.13;;;1.37;68.43
41515;BME280;27247;48.020;16.720;2023-02-28T19:20:40;100984.84;;;1.20;69.31
41515;BME280;27247;48.020;16.720;2023-02-28T19:24:51;100986.88;;;1.15;69.29
41515;BME280;27247;48.020;16.720;2023-02-28T19:29:03;100988.56;;;1.01;68.86
41515;BME280;27247;48.020;16.720;2023-02-28T19:33:15;100999.63;;;0.76;69.93
41515;BME280;27247;48.020;16.720;2023-02-28T19:37:26;100985.19;;;0.67;70.37
41515;BME280;27247;48.020;16.720;2023-02-28T19:41:37;100993.94;;;0.68;70.76
41515;BME280;27247;48.020;16.720;2023-02-28T19:45:47;100997.72;;;0.46;72.19
41515;BME280;27247;48.020;16.720;2023-02-28T19:49:58;101001.13;;;0.48;73.79
41515;BME280;27247;48.020;16.720;2023-02-28T19:54:09;101005.50;;;0.32;73.46
41515;BME280;27247;48.020;16.720;2023-02-28T19:58:19;101003.06;;;-0.06;75.44
41515;BME280;27247;48.020;16.720;2023-02-28T20:02:30;100998.50;;;-0.02;75.03
41515;BME280;27247;48.020;16.720;2023-02-28T20:06:41;101002.63;;;-0.14;74.21
41515;BME280;27247;48.020;16.720;2023-02-28T20:10:52;101001.78;;;-0.14;73.46
41515;BME280;27247;48.020;16.720;2023-02-28T20:15:04;101003.50;;;-0.30;73.79
41515;BME280;27247;48.020;16.720;2023-02-28T20:19:15;100994.81;;;-0.15;72.15
41515;BME280;27247;48.020;16.720;2023-02-28T20:23:26;100999.41;;;-0.36;72.99
41515;BME280;27247;48.020;16.720;2023-02-28T20:27:39;101003.25;;;-0.43;74.08
41515;BME280;27247;48.020;16.720;2023-02-28T20:31:52;101003.72;;;-0.35;73.75
41515;BME280;27247;48.020;16.720;2023-02-28T20:36:04;100996.47;;;-0.47;74.06
41515;BME280;27247;48.020;16.720;2023-02-28T20:40:15;100994.53;;;-0.61;74.23
41515;BME280;27247;48.020;16.720;2023-02-28T20:44:25;100998.41;;;-0.51;74.83
41515;BME280;27247;48.020;16.720;2023-02-28T20:48:38;100993.28;;;-0.54;74.92
41515;BME280;27247;48.020;16.720;2023-02-28T20:52:50;100986.72;;;-0.45;74.57
41515;BME280;27247;48.020;16.720;2023-02-28T20:57:01;100991.97;;;-0.45;75.02
41515;BME280;27247;48.020;16.720;2023-02-28T21:05:26;100989.66;;;-0.69;73.81
41515;BME280;27247;48.020;16.720;2023-02-28T21:09:37;100984.78;;;-0.76;74.12
41515;BME280;27247;48.020;16.720;2023-02-28T21:13:47;100980.38;;;-0.76;74.15
41515;BME280;27247;48.020;16.720;2023-02-28T21:18:00;100980.13;;;-0.88;75.04
41515;BME280;27247;48.020;16.720;2023-02-28T21:22:11;100981.28;;;-0.94;75.42
41515;BME280;27247;48.020;16.720;2023-02-28T21:26:23;100981.44;;;-0.97;75.45
41515;BME280;27247;48.020;16.720;2023-02-28T21:30:35;100986.53;;;-0.94;75.48
41515;BME280;27247;48.020;16.720;2023-02-28T21:34:46;100978.19;;;-1.02;76.26
41515;BME280;27247;48.020;16.720;2023-02-28T21:38:58;100974.56;;;-1.00;76.13
41515;BME280;27247;48.020;16.720;2023-02-28T21:43:09;100966.97;;;-1.06;76.04
41515;BME280;27247;48.020;16.720;2023-02-28T21:47:19;100977.34;;;-1.03;76.47
41515;BME280;27247;48.020;16.720;2023-02-28T21:51:30;100982.69;;;-0.87;76.77
41515;BME280;27247;48.020;16.720;2023-02-28T21:55:40;100981.72;;;-1.03;76.83
41515;BME280;27247;48.020;16.720;2023-02-28T21:59:51;100987.31;;;-1.11;76.36
41515;BME280;27247;48.020;16.720;2023-02-28T22:04:03;100976.19;;;-1.16;76.08
41515;BME280;27247;48.020;16.720;2023-02-28T22:08:14;100977.81;;;-1.13;75.87
41515;BME280;27247;48.020;16.720;2023-02-28T22:12:24;100980.72;;;-1.01;76.19
41515;BME280;27247;48.020;16.720;2023-02-28T22:16:35;100983.06;;;-1.13;75.64
41515;BME280;27247;48.020;16.720;2023-02-28T22:20:53;100978.63;;;-1.49;75.42
41515;BME280;27247;48.020;16.720;2023-02-28T22:25:04;100979.97;;;-1.78;76.61
41515;BME280;27247;48.020;16.720;2023-02-28T22:29:15;100982.09;;;-2.06;77.48
41515;BME280;27247;48.020;16.720;2023-02-28T22:33:26;100985.16;;;-2.17;78.40
41515;BME280;27247;48.020;16.720;2023-02-28T22:37:37;100988.06;;;-2.43;79.29
41515;BME280;27247;48.020;16.720;2023-02-28T22:41:47;100981.25;;;-2.27;79.25
41515;BME280;27247;48.020;16.720;2023-02-28T22:46:05;100988.31;;;-2.09;79.82
41515;BME280;27247;48.020;16.720;2023-02-28T22:50:16;100980.13;;;-2.01;80.14
41515;BME280;27247;48.020;16.720;2023-02-28T22:54:27;100982.41;;;-1.94;79.70
41515;BME280;27247;48.020;16.720;2023-02-28T22:58:37;100979.16;;;-1.99;79.42
41515;BME280;27247;48.020;16.720;2023-02-28T23:02:47;100976.47;;;-2.17;79.40
41515;BME280;27247;48.020;16.720;2023-02-28T23:06:58;100985.38;;;-2.21;79.03
41515;BME280;27247;48.020;16.720;2023-02-28T23:11:09;100992.50;;;-2.25;80.25
41515;BME280;27247;48.020;16.720;2023-02-28T23:15:20;100979.50;;;-2.06;80.46
41515;BME280;27247;48.020;16.720;2023-02-28T23:19:32;100980.84;;;-1.98;80.72
41515;BME280;27247;48.020;16.720;2023-02-28T23:23:42;100981.22;;;-1.86;80.75
41515;BME280;27247;48.020;16.720;2023-02-28T23:27:53;100989.72;;;-1.81;80.98
41515;BME280;27247;48.020;16.720;2023-02-28T23:32:03;100985.91;;;-1.74;80.49
41515;BME280;27247;48.020;16.720;2023-02-28T23:36:15;100984.16;;;-1.74;80.12
41515;BME280;27247;48.020;16.720;2023-02-28T23:40:26;100978.19;;;-1.77;79.96
41515;BME280;27247;48.020;16.720;2023-02-28T23:44:36;100977.78;;;-1.68;80.87
41515;BME280;27247;48.020;16.720;2023-02-28T23:48:47;100987.34;;;-1.67;80.83
41515;BME280;27247;48.020;16.720;2023-02-28T23:52:57;100984.16;;;-1.74;81.09
41515;BME280;27247;48.020;16.720;2023-02-28T23:57:07;100988.88;;;-1.82;81.42
